sensor_id;sensor_type;location;lat;lon;timestamp;P1;durP1;ratioP1;P2;durP2;ratioP2
56130;SDS011;42000;44.774;20.506;2022-11-13T17:18:27;69.93;;;34.50;;
56130;SDS011;42000;44.774;20.506;2022-11-13T17:20:53;65.97;;;32.35;;
56130;SDS011;42000;44.774;20.506;2022-11-13T17:23:19;57.05;;;28.35;;
56130;SDS011;42000;44.774;20.506;2022-11-13T17:25:45;48.33;;;25.40;;
56130;SDS011;42000;44.774;20.506;2022-11-13T17:28:11;55.60;;;25.38;;
56130;SDS011;42000;44.774;20.506;2022-11-13T17:30:37;49.20;;;25.35;;
56130;SDS011;42000;44.774;20.506;2022-11-13T17:33:03;50.78;;;25.90;;
56130;SDS011;42000;44.774;20.506;2022-11-13T17:35:29;49.95;;;25.35;;
56130;SDS011;42000;44.774;20.506;2022-11-13T17:37:56;51.78;;;26.52;;
56130;SDS011;42000;44.774;20.506;2022-11-13T17:40:22;46.88;;;25.35;;
56130;SDS011;42000;44.774;20.506;2022-11-13T17:42:48;48.10;;;25.92;;
56130;SDS011;42000;44.774;20.506;2022-11-13T17:45:14;50.33;;;27.38;;
56130;SDS011;42000;44.774;20.506;2022-11-13T17:47:40;53.13;;;27.30;;
56130;SDS011;42000;44.774;20.506;2022-11-13T17:50:07;50.55;;;26.10;;
56130;SDS011;42000;44.774;20.506;2022-11-13T17:52:33;59.58;;;28.88;;
56130;SDS011;42000;44.774;20.506;2022-11-13T17:55:00;61.97;;;33.45;;
56130;SDS011;42000;44.774;20.506;2022-11-13T17:57:30;71.40;;;35.63;;
56130;SDS011;42000;44.774;20.506;2022-11-13T17:59:57;61.30;;;32.10;;
56130;SDS011;42000;44.774;20.506;2022-11-13T18:02:23;54.00;;;29.05;;
56130;SDS011;42000;44.774;20.506;2022-11-13T18:04:49;55.92;;;29.52;;
56130;SDS011;42000;44.774;20.506;2022-11-13T18:07:17;56.15;;;29.88;;
56130;SDS011;42000;44.774;20.506;2022-11-13T18:09:44;52.70;;;29.15;;
56130;SDS011;42000;44.774;20.506;2022-11-13T18:12:10;59.22;;;32.22;;
56130;SDS011;42000;44.774;20.506;2022-11-13T18:14:36;65.10;;;33.80;;
56130;SDS011;42000;44.774;20.506;2022-11-13T18:17:02;62.33;;;32.65;;
56130;SDS011;42000;44.774;20.506;2022-11-13T18:19:28;70.05;;;35.28;;
56130;SDS011;42000;44.774;20.506;2022-11-13T18:21:54;66.50;;;34.65;;
56130;SDS011;42000;44.774;20.506;2022-11-13T18:24:20;61.65;;;33.25;;
56130;SDS011;42000;44.774;20.506;2022-11-13T18:26:46;68.32;;;33.38;;
56130;SDS011;42000;44.774;20.506;2022-11-13T18:29:12;65.38;;;32.72;;
56130;SDS011;42000;44.774;20.506;2022-11-13T18:31:38;60.55;;;31.45;;
56130;SDS011;42000;44.774;20.506;2022-11-13T18:34:05;58.63;;;30.67;;
56130;SDS011;42000;44.774;20.506;2022-11-13T18:36:33;61.42;;;31.38;;
56130;SDS011;42000;44.774;20.506;2022-11-13T18:39:00;60.42;;;30.85;;
56130;SDS011;42000;44.774;20.506;2022-11-13T18:41:27;61.80;;;31.00;;
56130;SDS011;42000;44.774;20.506;2022-11-13T18:43:53;63.72;;;31.13;;
56130;SDS011;42000;44.774;20.506;2022-11-13T18:46:20;64.40;;;33.33;;
56130;SDS011;42000;44.774;20.506;2022-11-13T18:48:46;68.20;;;33.85;;
56130;SDS011;42000;44.774;20.506;2022-11-13T18:51:13;64.95;;;32.78;;
56130;SDS011;42000;44.774;20.506;2022-11-13T18:53:40;67.90;;;34.88;;
56130;SDS011;42000;44.774;20.506;2022-11-13T18:56:09;62.38;;;34.58;;
56130;SDS011;42000;44.774;20.506;2022-11-13T18:58:36;67.65;;;33.67;;
56130;SDS011;42000;44.774;20.506;2022-11-13T19:03:52;68.50;;;33.92;;
56130;SDS011;42000;44.774;20.506;2022-11-13T19:06:20;67.15;;;35.45;;
56130;SDS011;42000;44.774;20.506;2022-11-13T19:08:46;68.03;;;36.30;;
56130;SDS011;42000;44.774;20.506;2022-11-13T19:11:14;67.20;;;36.40;;
56130;SDS011;42000;44.774;20.506;2022-11-13T19:13:41;67.45;;;35.15;;
56130;SDS011;42000;44.774;20.506;2022-11-13T19:16:11;67.07;;;32.95;;
56130;SDS011;42000;44.774;20.506;2022-11-13T19:18:38;62.58;;;32.35;;
56130;SDS011;42000;44.774;20.506;2022-11-13T19:23:31;68.20;;;34.58;;
56130;SDS011;42000;44.774;20.506;2022-11-13T19:25:57;66.28;;;32.80;;
56130;SDS011;42000;44.774;20.506;2022-11-13T19:28:23;67.68;;;33.05;;
56130;SDS011;42000;44.774;20.506;2022-11-13T19:30:49;63.95;;;33.35;;
56130;SDS011;42000;44.774;20.506;2022-11-13T19:33:18;66.88;;;33.80;;
56130;SDS011;42000;44.774;20.506;2022-11-13T19:35:44;67.15;;;33.65;;
56130;SDS011;42000;44.774;20.506;2022-11-13T19:38:11;70.65;;;34.95;;
56130;SDS011;42000;44.774;20.506;2022-11-13T19:40:37;63.70;;;34.85;;
56130;SDS011;42000;44.774;20.506;2022-11-13T19:43:03;70.10;;;34.53;;
56130;SDS011;42000;44.774;20.506;2022-11-13T19:45:29;67.10;;;34.30;;
56130;SDS011;42000;44.774;20.506;2022-11-13T19:47:56;70.47;;;35.00;;
56130;SDS011;42000;44.774;20.506;2022-11-13T19:50:22;68.82;;;35.00;;
56130;SDS011;42000;44.774;20.506;2022-11-13T19:52:48;65.43;;;34.55;;
56130;SDS011;42000;44.774;20.506;2022-11-13T19:55:14;63.03;;;33.95;;
56130;SDS011;42000;44.774;20.506;2022-11-13T19:57:40;64.05;;;33.78;;
56130;SDS011;42000;44.774;20.506;2022-11-13T20:00:06;63.05;;;32.47;;
56130;SDS011;42000;44.774;20.506;2022-11-13T20:02:33;65.22;;;32.35;;
56130;SDS011;42000;44.774;20.506;2022-11-13T20:04:59;65.13;;;32.17;;
56130;SDS011;42000;44.774;20.506;2022-11-13T20:07:25;64.70;;;32.97;;
56130;SDS011;42000;44.774;20.506;2022-11-13T20:09:51;62.88;;;31.75;;
56130;SDS011;42000;44.774;20.506;2022-11-13T20:12:17;59.95;;;31.75;;
56130;SDS011;42000;44.774;20.506;2022-11-13T20:14:43;60.58;;;31.77;;
56130;SDS011;42000;44.774;20.506;2022-11-13T20:17:09;60.97;;;31.15;;
56130;SDS011;42000;44.774;20.506;2022-11-13T20:19:35;63.75;;;31.27;;
56130;SDS011;42000;44.774;20.506;2022-11-13T20:22:01;57.22;;;29.77;;
56130;SDS011;42000;44.774;20.506;2022-11-13T20:24:27;59.38;;;29.92;;
56130;SDS011;42000;44.774;20.506;2022-11-13T20:26:53;54.03;;;27.95;;
56130;SDS011;42000;44.774;20.506;2022-11-13T20:29:19;57.83;;;29.13;;
56130;SDS011;42000;44.774;20.506;2022-11-13T20:31:45;55.53;;;28.52;;
56130;SDS011;42000;44.774;20.506;2022-11-13T20:34:11;52.13;;;27.38;;
56130;SDS011;42000;44.774;20.506;2022-11-13T20:36:38;56.83;;;27.80;;
56130;SDS011;42000;44.774;20.506;2022-11-13T20:39:04;50.58;;;26.27;;
56130;SDS011;42000;44.774;20.506;2022-11-13T20:41:30;51.90;;;27.80;;
56130;SDS011;42000;44.774;20.506;2022-11-13T20:43:56;52.15;;;26.88;;
56130;SDS011;42000;44.774;20.506;2022-11-13T20:46:26;50.03;;;27.55;;
56130;SDS011;42000;44.774;20.506;2022-11-13T20:48:52;48.15;;;26.17;;
56130;SDS011;42000;44.774;20.506;2022-11-13T20:51:19;49.75;;;27.52;;
56130;SDS011;42000;44.774;20.506;2022-11-13T20:53:45;52.70;;;26.13;;
56130;SDS011;42000;44.774;20.506;2022-11-13T20:56:12;45.67;;;25.30;;
56130;SDS011;42000;44.774;20.506;2022-11-13T20:58:38;46.33;;;25.23;;
56130;SDS011;42000;44.774;20.506;2022-11-13T21:01:05;51.05;;;26.67;;
56130;SDS011;42000;44.774;20.506;2022-11-13T21:03:32;47.03;;;24.83;;
56130;SDS011;42000;44.774;20.506;2022-11-13T21:05:58;45.55;;;24.52;;
56130;SDS011;42000;44.774;20.506;2022-11-13T21:08:24;45.80;;;25.10;;
56130;SDS011;42000;44.774;20.506;2022-11-13T21:10:50;45.50;;;23.85;;
56130;SDS011;42000;44.774;20.506;2022-11-13T21:13:16;40.70;;;22.98;;
56130;SDS011;42000;44.774;20.506;2022-11-13T21:15:42;46.25;;;24.27;;
56130;SDS011;42000;44.774;20.506;2022-11-13T21:18:08;42.33;;;23.77;;
56130;SDS011;42000;44.774;20.506;2022-11-13T21:20:35;44.80;;;22.98;;
56130;SDS011;42000;44.774;20.506;2022-11-13T21:23:01;40.58;;;22.98;;
56130;SDS011;42000;44.774;20.506;2022-11-13T21:25:28;38.75;;;22.27;;
56130;SDS011;42000;44.774;20.506;2022-11-13T21:27:54;43.05;;;23.02;;
56130;SDS011;42000;44.774;20.506;2022-11-13T21:30:21;42.90;;;23.55;;
56130;SDS011;42000;44.774;20.506;2022-11-13T21:32:47;44.83;;;23.38;;
56130;SDS011;42000;44.774;20.506;2022-11-13T21:35:13;43.97;;;23.90;;
56130;SDS011;42000;44.774;20.506;2022-11-13T21:37:39;47.90;;;24.60;;
56130;SDS011;42000;44.774;20.506;2022-11-13T21:40:05;44.85;;;24.40;;
56130;SDS011;42000;44.774;20.506;2022-11-13T21:42:32;39.92;;;23.23;;
56130;SDS011;42000;44.774;20.506;2022-11-13T21:44:58;43.42;;;23.35;;
56130;SDS011;42000;44.774;20.506;2022-11-13T21:47:24;44.08;;;23.27;;
56130;SDS011;42000;44.774;20.506;2022-11-13T21:49:50;40.10;;;22.95;;
56130;SDS011;42000;44.774;20.506;2022-11-13T21:52:16;40.42;;;22.90;;
56130;SDS011;42000;44.774;20.506;2022-11-13T21:54:42;43.30;;;23.55;;
56130;SDS011;42000;44.774;20.506;2022-11-13T21:57:08;42.78;;;22.30;;
56130;SDS011;42000;44.774;20.506;2022-11-13T21:59:34;41.25;;;21.98;;
56130;SDS011;42000;44.774;20.506;2022-11-13T22:02:00;40.45;;;23.00;;
56130;SDS011;42000;44.774;20.506;2022-11-13T22:04:26;40.00;;;22.30;;
56130;SDS011;42000;44.774;20.506;2022-11-13T22:06:52;38.55;;;22.67;;
56130;SDS011;42000;44.774;20.506;2022-11-13T22:09:19;41.25;;;22.83;;
56130;SDS011;42000;44.774;20.506;2022-11-13T22:11:46;40.42;;;22.23;;
56130;SDS011;42000;44.774;20.506;2022-11-13T22:14:12;38.75;;;21.65;;
56130;SDS011;42000;44.774;20.506;2022-11-13T22:16:39;40.38;;;21.63;;
56130;SDS011;42000;44.774;20.506;2022-11-13T22:19:08;37.25;;;21.45;;
56130;SDS011;42000;44.774;20.506;2022-11-13T22:21:34;41.90;;;22.60;;
56130;SDS011;42000;44.774;20.506;2022-11-13T22:24:01;39.35;;;21.63;;
56130;SDS011;42000;44.774;20.506;2022-11-13T22:26:27;37.38;;;21.33;;
56130;SDS011;42000;44.774;20.506;2022-11-13T22:28:54;37.95;;;21.23;;
56130;SDS011;42000;44.774;20.506;2022-11-13T22:31:25;38.42;;;20.73;;
56130;SDS011;42000;44.774;20.506;2022-11-13T22:33:52;38.13;;;21.33;;
56130;SDS011;42000;44.774;20.506;2022-11-13T22:36:19;41.75;;;22.50;;
56130;SDS011;42000;44.774;20.506;2022-11-13T22:38:45;44.78;;;22.95;;
56130;SDS011;42000;44.774;20.506;2022-11-13T22:43:40;42.50;;;22.98;;
56130;SDS011;42000;44.774;20.506;2022-11-13T22:46:07;41.05;;;22.75;;
56130;SDS011;42000;44.774;20.506;2022-11-13T22:48:34;43.83;;;24.38;;
56130;SDS011;42000;44.774;20.506;2022-11-13T22:51:01;44.53;;;22.85;;
56130;SDS011;42000;44.774;20.506;2022-11-13T22:53:27;40.58;;;21.98;;
56130;SDS011;42000;44.774;20.506;2022-11-13T22:55:58;38.03;;;21.15;;
56130;SDS011;42000;44.774;20.506;2022-11-13T22:58:26;35.70;;;20.73;;
56130;SDS011;42000;44.774;20.506;2022-11-13T23:00:52;37.10;;;20.60;;
56130;SDS011;42000;44.774;20.506;2022-11-13T23:03:18;38.25;;;22.27;;
56130;SDS011;42000;44.774;20.506;2022-11-13T23:05:44;38.35;;;21.42;;
56130;SDS011;42000;44.774;20.506;2022-11-13T23:08:10;41.00;;;22.20;;
56130;SDS011;42000;44.774;20.506;2022-11-13T23:10:36;37.00;;;20.98;;
56130;SDS011;42000;44.774;20.506;2022-11-13T23:13:02;42.75;;;22.35;;
56130;SDS011;42000;44.774;20.506;2022-11-13T23:15:28;38.97;;;21.60;;
56130;SDS011;42000;44.774;20.506;2022-11-13T23:17:54;38.63;;;21.50;;
56130;SDS011;42000;44.774;20.506;2022-11-13T23:20:20;40.20;;;21.75;;
